Terminal Aerodrome Forecast
Issued by NWS

Home | Current Version | Previous Version | Text Only | Print | Product List | Glossary On
Versions: 1 2 3 4 5 6 7 8 9 10 11 12 13
530
FTUS46 KMFR 131142
TAFLMT
TAF
KLMT 131142Z 1312/1412 VRB03KT P6SM SCT010
     FM140300 27006KT P6SM BKN050 BKN080=

USA.gov is the U.S. government's official web portal to all federal, state and local government web resources and services.